Flight Track Log - Related Links

Times and Time Zones

All times are in EDT time to prevent confusion due to time zone crossing. See the SKW7363 flight status page for this flight to view local times or setup timezone preferences in your user account.

Time Position Orientation Groundspeed Altitude Reporting Facility
EDT Latitude Longitude Course Direction KTS MPH feet Rate Location/Type
Sat 05:35:09 PM 40.7731 -111.9736 50° Northeast 174 200 4,800  Level Salt Lake Center
Sat 05:36:16 PM 40.7436 -112.0319 236° Southwest 219 252 6,900 1,440 Climbing Salt Lake Center
Sat 05:37:14 PM 40.7764 -112.0944 305° West 269 310 7,800 1,361 Climbing Salt Lake Center
Sat 05:38:00 PM 41.0145 -112.1177 81° East  Level FlightAware Approximate
Sat 05:38:15 PM 40.8397 -112.1672 319° Northwest 299 344 9,600  Level Salt Lake Center
Sat 05:39:00 PM 41.0881 -112.0092 50° Northeast  Level FlightAware Approximate
Sat 05:39:17 PM 40.9353 -112.1817 353° North 312 359 11,600  Level Salt Lake Center
Sat 05:40:00 PM 41.1664 -111.8862 50° Northeast  Level FlightAware Approximate
Sat 05:40:19 PM 41.0014 -112.0961 44° Northeast 334 384 13,200  Level Salt Lake Center
Sat 05:41:21 PM 41.0683 -112.0144 43° Northeast 328 377 15,100 1,597 Climbing Salt Lake Center
Sat 05:42:23 PM 41.1378 -111.9258 44° Northeast 339 390 16,500 1,258 Climbing Salt Lake Center
Sat 05:43:25 PM 41.2119 -111.8375 42° Northeast 352 405 17,700 1,366 Climbing Salt Lake Center
Sat 05:44:26 PM 41.3011 -111.7719 29° Northeast 364 419 19,300 1,317 Climbing Salt Lake Center
Sat 05:45:28 PM 41.3922 -111.7094 27° Northeast 368 423 20,400 1,113 Climbing Salt Lake Center
Sat 05:46:30 PM 41.4922 -111.6694 17° North 375 432 21,600 774 Climbing Salt Lake Center
Sat 05:47:32 PM 41.5881 -111.6067 26° Northeast 384 442 22,000 537 Climbing Salt Lake Center
Sat 05:48:33 PM 41.7061 -111.5103 31° Northeast 412 474 22,700 537 Climbing Salt Lake Center
Sat 05:49:35 PM 41.8039 -111.4300 31° Northeast 412 474 23,100 145 Climbing Salt Lake Center
Sat 05:50:37 PM 41.8892 -111.3192 44° Northeast 447 514 23,000 435 Descending Salt Lake Center
Sat 05:51:39 PM 41.9342 -111.1703 68° East 434 499 24,000 919 Climbing Salt Lake Center
Sat 05:52:41 PM 42.0119 -111.0575 47° Northeast 434 499 24,900 927 Climbing Salt Lake Center
Sat 05:53:42 PM 42.1139 -110.9767 30° Northeast 426 490 25,900 1,024 Climbing Salt Lake Center
Sat 05:54:44 PM 42.2222 -110.8944 29° Northeast 422 486 27,000 871 Climbing Salt Lake Center
Sat 05:55:46 PM 42.3372 -110.8067 29° Northeast 423 487 27,700 581 Climbing Salt Lake Center
Sat 05:56:48 PM 42.4375 -110.7303 29° Northeast 431 496 28,200 439 Climbing Salt Lake Center
Sat 05:57:49 PM 42.5389 -110.6519 30° Northeast 437 503 28,600 390 Climbing Salt Lake Center
Sat 05:58:51 PM 42.6586 -110.5572 30° Northeast 444 511 29,000 194 Climbing Salt Lake Center
Sat 05:59:53 PM 42.7647 -110.4758 29° Northeast 454 522 29,000  Level Salt Lake Center
Sat 06:00:54 PM 42.8869 -110.3800 30° Northeast 453 521 29,000  Level Salt Lake Center
Sat 06:01:56 PM 42.9994 -110.2906 30° Northeast 449 517 29,000  Level Salt Lake Center
Sat 06:02:57 PM 43.0992 -110.2106 30° Northeast 440 506 29,000  Level Salt Lake Center
Sat 06:03:59 PM 43.2011 -110.1311 30° Northeast 440 506 29,000  Level Salt Lake Center
Sat 06:05:01 PM 43.3117 -110.0400 31° Northeast 447 514 29,000  Level Salt Lake Center
Sat 06:06:02 PM 43.4311 -109.9442 30° Northeast 445 512 29,000 -146 Level Salt Lake Center
Sat 06:07:04 PM 43.5411 -109.8550 30° Northeast 443 510 28,700 -1,355 Descending Salt Lake Center
Sat 06:08:06 PM 43.6475 -109.7708 30° Northeast 458 527 26,200 -2,585 Descending Salt Lake Center
Sat 06:09:07 PM 43.7803 -109.6636 30° Northeast 491 565 23,400 -2,537 Descending Salt Lake Center
Sat 06:10:09 PM 43.8783 -109.5814 31° Northeast 433 498 21,000 -2,439 Descending Salt Lake Center
Sat 06:11:10 PM 43.9725 -109.5039 31° Northeast 392 451 18,400 -2,390 Descending Salt Lake Center
Sat 06:12:12 PM 44.0639 -109.4322 29° Northeast 382 440 16,100 -1,171 Descending Salt Lake Center
Sat 06:13:13 PM 44.1522 -109.3586 31° Northeast 375 432 16,000 -585 Descending Salt Lake Center
Sat 06:14:15 PM 44.2383 -109.2956 28° Northeast 358 412 14,900 -1,597 Descending Salt Lake Center
Sat 06:15:17 PM 44.3219 -109.2656 14° North 319 367 12,700 -1,854 Descending Salt Lake Center
Sat 06:16:18 PM 44.4200 -109.2333 13° North 310 357 11,100 -2,000 Descending Salt Lake Center
Sat 06:17:20 PM 44.4458 -109.1669 61° Northeast 233 268 8,600 -2,049 Descending Salt Lake Center
Sat 06:18:21 PM 44.4728 -109.1161 53° Northeast 188 216 6,900 -1,366 Descending Salt Lake Center
Sat 06:19:23 PM 44.4981 -109.0683 53° Northeast 167 192 5,800 -732 Descending Salt Lake Center
Sat 06:20:24 PM 44.5214 -109.0261 52° Northeast 162 186 5,400 -393 Descending Salt Lake Center

Login

Don't have an account? Register now (free) for customized features, flight alerts, and more!